sensor_id;sensor_type;location;lat;lon;timestamp;P1;durP1;ratioP1;P2;durP2;ratioP2
58864;SDS011;45702;52.982;6.658;2023-04-01T00:01:02;22.15;;;11.35;;
58864;SDS011;45702;52.982;6.658;2023-04-01T00:03:29;26.48;;;12.43;;
58864;SDS011;45702;52.982;6.658;2023-04-01T00:05:56;23.20;;;11.70;;
58864;SDS011;45702;52.982;6.658;2023-04-01T00:08:22;22.45;;;11.52;;
58864;SDS011;45702;52.982;6.658;2023-04-01T00:10:49;24.00;;;10.88;;
58864;SDS011;45702;52.982;6.658;2023-04-01T00:13:15;22.25;;;10.73;;
58864;SDS011;45702;52.982;6.658;2023-04-01T00:15:41;25.38;;;11.05;;
58864;SDS011;45702;52.982;6.658;2023-04-01T00:18:08;23.08;;;10.88;;
58864;SDS011;45702;52.982;6.658;2023-04-01T00:20:34;24.17;;;11.50;;
58864;SDS011;45702;52.982;6.658;2023-04-01T00:23:00;25.63;;;11.43;;
58864;SDS011;45702;52.982;6.658;2023-04-01T00:25:26;26.13;;;11.80;;
58864;SDS011;45702;52.982;6.658;2023-04-01T00:27:53;31.15;;;12.20;;
58864;SDS011;45702;52.982;6.658;2023-04-01T00:30:19;26.13;;;11.80;;
58864;SDS011;45702;52.982;6.658;2023-04-01T00:32:45;25.05;;;11.55;;
58864;SDS011;45702;52.982;6.658;2023-04-01T00:35:11;32.25;;;12.57;;
58864;SDS011;45702;52.982;6.658;2023-04-01T00:37:37;26.52;;;11.82;;
58864;SDS011;45702;52.982;6.658;2023-04-01T00:40:07;28.75;;;12.45;;
58864;SDS011;45702;52.982;6.658;2023-04-01T00:42:34;26.50;;;11.77;;
58864;SDS011;45702;52.982;6.658;2023-04-01T00:45:21;24.70;;;11.13;;
58864;SDS011;45702;52.982;6.658;2023-04-01T00:47:46;25.60;;;12.30;;
58864;SDS011;45702;52.982;6.658;2023-04-01T00:50:12;28.60;;;12.23;;
58864;SDS011;45702;52.982;6.658;2023-04-01T00:52:38;26.45;;;12.35;;
58864;SDS011;45702;52.982;6.658;2023-04-01T00:55:04;27.33;;;12.30;;
58864;SDS011;45702;52.982;6.658;2023-04-01T00:57:34;28.05;;;12.93;;
58864;SDS011;45702;52.982;6.658;2023-04-01T01:00:03;30.60;;;12.48;;
58864;SDS011;45702;52.982;6.658;2023-04-01T01:02:30;27.70;;;12.15;;
58864;SDS011;45702;52.982;6.658;2023-04-01T01:04:57;23.95;;;11.02;;
58864;SDS011;45702;52.982;6.658;2023-04-01T01:07:38;27.13;;;11.95;;
58864;SDS011;45702;52.982;6.658;2023-04-01T01:15:19;25.55;;;11.65;;
58864;SDS011;45702;52.982;6.658;2023-04-01T01:20:33;25.60;;;10.85;;
58864;SDS011;45702;52.982;6.658;2023-04-01T01:28:16;24.88;;;10.68;;
58864;SDS011;45702;52.982;6.658;2023-04-01T01:30:51;21.55;;;10.07;;
58864;SDS011;45702;52.982;6.658;2023-04-01T01:35:54;28.20;;;11.95;;
58864;SDS011;45702;52.982;6.658;2023-04-01T01:38:27;23.35;;;10.57;;
58864;SDS011;45702;52.982;6.658;2023-04-01T01:40:55;25.88;;;11.18;;
58864;SDS011;45702;52.982;6.658;2023-04-01T01:43:24;21.38;;;10.23;;
58864;SDS011;45702;52.982;6.658;2023-04-01T01:45:52;22.58;;;10.52;;
58864;SDS011;45702;52.982;6.658;2023-04-01T01:48:20;27.02;;;10.95;;
58864;SDS011;45702;52.982;6.658;2023-04-01T01:50:46;28.67;;;10.68;;
58864;SDS011;45702;52.982;6.658;2023-04-01T01:53:13;29.52;;;11.40;;
58864;SDS011;45702;52.982;6.658;2023-04-01T01:55:41;31.63;;;11.07;;
58864;SDS011;45702;52.982;6.658;2023-04-01T01:58:18;25.23;;;10.20;;
58864;SDS011;45702;52.982;6.658;2023-04-01T02:00:50;23.10;;;9.73;;
58864;SDS011;45702;52.982;6.658;2023-04-01T02:03:19;22.52;;;9.60;;
58864;SDS011;45702;52.982;6.658;2023-04-01T02:05:47;19.38;;;8.10;;
58864;SDS011;45702;52.982;6.658;2023-04-01T02:08:15;19.15;;;6.95;;
58864;SDS011;45702;52.982;6.658;2023-04-01T02:10:43;14.38;;;6.28;;
58864;SDS011;45702;52.982;6.658;2023-04-01T02:13:23;14.50;;;6.15;;
58864;SDS011;45702;52.982;6.658;2023-04-01T02:15:51;15.10;;;5.65;;
58864;SDS011;45702;52.982;6.658;2023-04-01T02:18:20;18.20;;;5.97;;
58864;SDS011;45702;52.982;6.658;2023-04-01T02:20:46;18.77;;;6.10;;
58864;SDS011;45702;52.982;6.658;2023-04-01T02:23:13;12.27;;;5.60;;
58864;SDS011;45702;52.982;6.658;2023-04-01T02:25:40;15.65;;;5.88;;
58864;SDS011;45702;52.982;6.658;2023-04-01T02:28:07;11.23;;;5.22;;
58864;SDS011;45702;52.982;6.658;2023-04-01T02:30:34;12.52;;;5.05;;
58864;SDS011;45702;52.982;6.658;2023-04-01T02:33:01;10.23;;;4.25;;
58864;SDS011;45702;52.982;6.658;2023-04-01T02:35:28;10.18;;;4.10;;
58864;SDS011;45702;52.982;6.658;2023-04-01T02:37:55;7.38;;;3.50;;
58864;SDS011;45702;52.982;6.658;2023-04-01T02:40:21;8.18;;;3.17;;
58864;SDS011;45702;52.982;6.658;2023-04-01T02:42:47;7.13;;;3.00;;
58864;SDS011;45702;52.982;6.658;2023-04-01T02:45:13;6.40;;;3.17;;
58864;SDS011;45702;52.982;6.658;2023-04-01T02:47:40;6.40;;;3.17;;
58864;SDS011;45702;52.982;6.658;2023-04-01T02:50:06;7.97;;;3.28;;
58864;SDS011;45702;52.982;6.658;2023-04-01T02:52:32;8.07;;;3.78;;
58864;SDS011;45702;52.982;6.658;2023-04-01T02:54:59;9.68;;;3.75;;
58864;SDS011;45702;52.982;6.658;2023-04-01T02:57:25;10.70;;;3.80;;
58864;SDS011;45702;52.982;6.658;2023-04-01T02:59:51;8.80;;;3.60;;
58864;SDS011;45702;52.982;6.658;2023-04-01T03:02:17;9.40;;;4.10;;
58864;SDS011;45702;52.982;6.658;2023-04-01T03:04:44;11.52;;;4.07;;
58864;SDS011;45702;52.982;6.658;2023-04-01T03:07:10;10.82;;;4.47;;
58864;SDS011;45702;52.982;6.658;2023-04-01T03:09:37;13.50;;;4.80;;
58864;SDS011;45702;52.982;6.658;2023-04-01T03:12:03;17.70;;;4.50;;
58864;SDS011;45702;52.982;6.658;2023-04-01T03:14:29;14.23;;;4.60;;
58864;SDS011;45702;52.982;6.658;2023-04-01T03:16:55;12.25;;;4.57;;
58864;SDS011;45702;52.982;6.658;2023-04-01T03:19:21;14.07;;;4.65;;
58864;SDS011;45702;52.982;6.658;2023-04-01T03:21:47;13.52;;;4.32;;
58864;SDS011;45702;52.982;6.658;2023-04-01T03:24:14;11.63;;;4.30;;
58864;SDS011;45702;52.982;6.658;2023-04-01T03:26:40;10.82;;;4.38;;
58864;SDS011;45702;52.982;6.658;2023-04-01T03:29:06;14.95;;;4.70;;
58864;SDS011;45702;52.982;6.658;2023-04-01T03:31:32;11.38;;;4.18;;
58864;SDS011;45702;52.982;6.658;2023-04-01T03:33:59;14.18;;;4.30;;
58864;SDS011;45702;52.982;6.658;2023-04-01T03:36:25;11.50;;;4.38;;
58864;SDS011;45702;52.982;6.658;2023-04-01T03:38:51;16.92;;;5.47;;
58864;SDS011;45702;52.982;6.658;2023-04-01T03:41:17;13.00;;;5.05;;
58864;SDS011;45702;52.982;6.658;2023-04-01T03:43:43;16.70;;;5.32;;
58864;SDS011;45702;52.982;6.658;2023-04-01T03:46:10;15.32;;;5.55;;
58864;SDS011;45702;52.982;6.658;2023-04-01T03:48:36;12.48;;;5.65;;
58864;SDS011;45702;52.982;6.658;2023-04-01T03:51:06;17.95;;;5.72;;
58864;SDS011;45702;52.982;6.658;2023-04-01T03:53:32;22.25;;;6.72;;
58864;SDS011;45702;52.982;6.658;2023-04-01T03:55:58;17.75;;;6.32;;
58864;SDS011;45702;52.982;6.658;2023-04-01T03:58:24;19.40;;;6.95;;
58864;SDS011;45702;52.982;6.658;2023-04-01T04:00:50;17.35;;;7.57;;
58864;SDS011;45702;52.982;6.658;2023-04-01T04:03:16;23.27;;;7.85;;
58864;SDS011;45702;52.982;6.658;2023-04-01T04:05:46;26.08;;;8.70;;
58864;SDS011;45702;52.982;6.658;2023-04-01T04:08:12;20.30;;;8.30;;
58864;SDS011;45702;52.982;6.658;2023-04-01T04:10:38;27.25;;;8.55;;
58864;SDS011;45702;52.982;6.658;2023-04-01T04:13:04;27.92;;;8.85;;
58864;SDS011;45702;52.982;6.658;2023-04-01T04:15:31;25.80;;;8.90;;
58864;SDS011;45702;52.982;6.658;2023-04-01T04:17:57;24.52;;;8.98;;
58864;SDS011;45702;52.982;6.658;2023-04-01T04:20:23;25.70;;;8.82;;
58864;SDS011;45702;52.982;6.658;2023-04-01T04:22:49;31.95;;;9.55;;
58864;SDS011;45702;52.982;6.658;2023-04-01T04:25:15;28.77;;;10.00;;
58864;SDS011;45702;52.982;6.658;2023-04-01T04:27:41;25.02;;;9.80;;
58864;SDS011;45702;52.982;6.658;2023-04-01T04:30:07;32.83;;;10.25;;
58864;SDS011;45702;52.982;6.658;2023-04-01T04:32:34;37.03;;;10.73;;
58864;SDS011;45702;52.982;6.658;2023-04-01T04:35:00;30.95;;;10.85;;
58864;SDS011;45702;52.982;6.658;2023-04-01T04:37:26;32.42;;;11.25;;
58864;SDS011;45702;52.982;6.658;2023-04-01T04:39:52;32.33;;;11.13;;
58864;SDS011;45702;52.982;6.658;2023-04-01T04:42:18;33.08;;;11.05;;
58864;SDS011;45702;52.982;6.658;2023-04-01T04:44:44;34.08;;;10.98;;
58864;SDS011;45702;52.982;6.658;2023-04-01T04:47:10;37.47;;;12.57;;
58864;SDS011;45702;52.982;6.658;2023-04-01T04:49:36;35.65;;;11.65;;
58864;SDS011;45702;52.982;6.658;2023-04-01T04:52:02;41.20;;;12.10;;
58864;SDS011;45702;52.982;6.658;2023-04-01T04:54:29;31.80;;;11.63;;
58864;SDS011;45702;52.982;6.658;2023-04-01T04:56:55;37.88;;;12.20;;
58864;SDS011;45702;52.982;6.658;2023-04-01T04:59:21;45.60;;;12.52;;
58864;SDS011;45702;52.982;6.658;2023-04-01T05:01:47;31.13;;;11.75;;
58864;SDS011;45702;52.982;6.658;2023-04-01T05:04:13;29.33;;;10.70;;
58864;SDS011;45702;52.982;6.658;2023-04-01T05:06:39;31.27;;;11.27;;
58864;SDS011;45702;52.982;6.658;2023-04-01T05:09:05;41.60;;;11.60;;
58864;SDS011;45702;52.982;6.658;2023-04-01T05:11:31;40.50;;;11.88;;
58864;SDS011;45702;52.982;6.658;2023-04-01T05:13:57;36.13;;;12.02;;
58864;SDS011;45702;52.982;6.658;2023-04-01T05:16:23;36.22;;;12.82;;
58864;SDS011;45702;52.982;6.658;2023-04-01T05:18:49;43.95;;;12.55;;
58864;SDS011;45702;52.982;6.658;2023-04-01T05:21:15;36.85;;;12.52;;
58864;SDS011;45702;52.982;6.658;2023-04-01T05:23:42;55.63;;;13.05;;
58864;SDS011;45702;52.982;6.658;2023-04-01T05:26:10;55.50;;;14.48;;
58864;SDS011;45702;52.982;6.658;2023-04-01T05:28:36;36.58;;;13.02;;
58864;SDS011;45702;52.982;6.658;2023-04-01T05:31:03;47.47;;;13.27;;
58864;SDS011;45702;52.982;6.658;2023-04-01T05:33:30;41.95;;;12.90;;
58864;SDS011;45702;52.982;6.658;2023-04-01T05:35:57;43.70;;;13.07;;
58864;SDS011;45702;52.982;6.658;2023-04-01T05:38:30;48.20;;;13.63;;
58864;SDS011;45702;52.982;6.658;2023-04-01T05:41:00;41.95;;;12.82;;
58864;SDS011;45702;52.982;6.658;2023-04-01T05:43:26;54.30;;;13.00;;
58864;SDS011;45702;52.982;6.658;2023-04-01T05:45:53;29.52;;;10.43;;
58864;SDS011;45702;52.982;6.658;2023-04-01T05:48:19;26.58;;;10.55;;
58864;SDS011;45702;52.982;6.658;2023-04-01T05:50:45;31.90;;;10.77;;
58864;SDS011;45702;52.982;6.658;2023-04-01T05:53:11;24.60;;;9.40;;
58864;SDS011;45702;52.982;6.658;2023-04-01T05:55:37;26.80;;;10.20;;
58864;SDS011;45702;52.982;6.658;2023-04-01T05:58:03;26.35;;;9.00;;
58864;SDS011;45702;52.982;6.658;2023-04-01T06:00:30;31.98;;;8.88;;
58864;SDS011;45702;52.982;6.658;2023-04-01T06:02:58;26.00;;;9.00;;
58864;SDS011;45702;52.982;6.658;2023-04-01T06:05:26;27.38;;;9.38;;
58864;SDS011;45702;52.982;6.658;2023-04-01T06:07:55;24.83;;;8.85;;
58864;SDS011;45702;52.982;6.658;2023-04-01T06:10:23;20.42;;;8.55;;
58864;SDS011;45702;52.982;6.658;2023-04-01T06:13:00;27.08;;;9.32;;
58864;SDS011;45702;52.982;6.658;2023-04-01T06:15:36;24.25;;;9.23;;
58864;SDS011;45702;52.982;6.658;2023-04-01T06:44:07;44.97;;;14.75;;
58864;SDS011;45702;52.982;6.658;2023-04-01T06:46:41;46.45;;;14.55;;
58864;SDS011;45702;52.982;6.658;2023-04-01T06:54:20;40.30;;;14.63;;
58864;SDS011;45702;52.982;6.658;2023-04-01T06:56:48;43.80;;;15.32;;
58864;SDS011;45702;52.982;6.658;2023-04-01T06:59:15;49.35;;;16.33;;
58864;SDS011;45702;52.982;6.658;2023-04-01T07:01:44;53.67;;;16.70;;
58864;SDS011;45702;52.982;6.658;2023-04-01T07:04:13;49.17;;;16.15;;
58864;SDS011;45702;52.982;6.658;2023-04-01T07:06:44;55.13;;;16.90;;
58864;SDS011;45702;52.982;6.658;2023-04-01T07:09:13;50.42;;;16.35;;
58864;SDS011;45702;52.982;6.658;2023-04-01T07:11:42;46.58;;;15.43;;
58864;SDS011;45702;52.982;6.658;2023-04-01T07:17:23;38.05;;;15.20;;
58864;SDS011;45702;52.982;6.658;2023-04-01T07:19:59;42.13;;;15.75;;
58864;SDS011;45702;52.982;6.658;2023-04-01T07:24:57;47.45;;;16.55;;
58864;SDS011;45702;52.982;6.658;2023-04-01T07:27:27;43.63;;;16.40;;
58864;SDS011;45702;52.982;6.658;2023-04-01T07:29:55;38.53;;;15.80;;
58864;SDS011;45702;52.982;6.658;2023-04-01T07:35:13;39.25;;;15.73;;
58864;SDS011;45702;52.982;6.658;2023-04-01T07:42:45;45.83;;;16.60;;
58864;SDS011;45702;52.982;6.658;2023-04-01T07:47:45;37.45;;;15.18;;
58864;SDS011;45702;52.982;6.658;2023-04-01T08:00:21;33.75;;;14.50;;
58864;SDS011;45702;52.982;6.658;2023-04-01T08:05:28;33.92;;;12.88;;
58864;SDS011;45702;52.982;6.658;2023-04-01T08:13:02;34.67;;;14.73;;
58864;SDS011;45702;52.982;6.658;2023-04-01T08:15:35;37.33;;;15.85;;
58864;SDS011;45702;52.982;6.658;2023-04-01T08:23:13;33.28;;;14.48;;
58864;SDS011;45702;52.982;6.658;2023-04-01T08:25:49;30.55;;;13.77;;
58864;SDS011;45702;52.982;6.658;2023-04-01T08:28:19;27.85;;;12.73;;
58864;SDS011;45702;52.982;6.658;2023-04-01T08:31:09;26.83;;;12.80;;
58864;SDS011;45702;52.982;6.658;2023-04-01T08:33:32;32.40;;;13.90;;
58864;SDS011;45702;52.982;6.658;2023-04-01T08:36:02;29.15;;;12.82;;
58864;SDS011;45702;52.982;6.658;2023-04-01T08:39:12;26.67;;;11.10;;
58864;SDS011;45702;52.982;6.658;2023-04-01T09:06:31;25.75;;;11.77;;
58864;SDS011;45702;52.982;6.658;2023-04-01T09:22:22;29.23;;;14.05;;
58864;SDS011;45702;52.982;6.658;2023-04-01T09:27:34;31.55;;;14.35;;
58864;SDS011;45702;52.982;6.658;2023-04-01T09:30:28;29.30;;;13.50;;
58864;SDS011;45702;52.982;6.658;2023-04-01T09:35:45;27.52;;;13.20;;
58864;SDS011;45702;52.982;6.658;2023-04-01T09:43:21;29.98;;;13.50;;
58864;SDS011;45702;52.982;6.658;2023-04-01T10:14:33;16.20;;;6.90;;
58864;SDS011;45702;52.982;6.658;2023-04-01T10:17:18;12.88;;;6.80;;
58864;SDS011;45702;52.982;6.658;2023-04-01T10:28:06;11.30;;;6.50;;
58864;SDS011;45702;52.982;6.658;2023-04-01T10:33:33;12.57;;;6.70;;
58864;SDS011;45702;52.982;6.658;2023-04-01T10:36:27;11.32;;;6.65;;
58864;SDS011;45702;52.982;6.658;2023-04-01T10:38:55;12.55;;;6.65;;
58864;SDS011;45702;52.982;6.658;2023-04-01T10:41:51;11.23;;;6.95;;
58864;SDS011;45702;52.982;6.658;2023-04-01T10:50:40;10.50;;;6.65;;
58864;SDS011;45702;52.982;6.658;2023-04-01T10:55:19;12.50;;;7.00;;
58864;SDS011;45702;52.982;6.658;2023-04-01T11:00:30;12.27;;;7.15;;
58864;SDS011;45702;52.982;6.658;2023-04-01T11:13:53;11.70;;;7.05;;
58864;SDS011;45702;52.982;6.658;2023-04-01T11:18:56;10.75;;;6.57;;
58864;SDS011;45702;52.982;6.658;2023-04-01T11:31:43;9.45;;;5.38;;
58864;SDS011;45702;52.982;6.658;2023-04-01T11:39:24;7.63;;;5.18;;
58864;SDS011;45702;52.982;6.658;2023-04-01T11:41:59;10.48;;;5.43;;
58864;SDS011;45702;52.982;6.658;2023-04-01T11:44:27;9.85;;;5.82;;
58864;SDS011;45702;52.982;6.658;2023-04-01T11:52:28;9.43;;;5.65;;
58864;SDS011;45702;52.982;6.658;2023-04-01T12:05:34;8.65;;;5.10;;
58864;SDS011;45702;52.982;6.658;2023-04-01T12:10:50;8.85;;;5.80;;
58864;SDS011;45702;52.982;6.658;2023-04-01T12:15:58;10.48;;;6.15;;
58864;SDS011;45702;52.982;6.658;2023-04-01T12:18:35;15.75;;;6.35;;
58864;SDS011;45702;52.982;6.658;2023-04-01T12:36:51;10.82;;;5.43;;
58864;SDS011;45702;52.982;6.658;2023-04-01T12:44:47;8.80;;;5.60;;
58864;SDS011;45702;52.982;6.658;2023-04-01T12:52:14;10.70;;;5.82;;
58864;SDS011;45702;52.982;6.658;2023-04-01T13:18:27;8.20;;;5.68;;
58864;SDS011;45702;52.982;6.658;2023-04-01T13:21:04;9.63;;;6.43;;
58864;SDS011;45702;52.982;6.658;2023-04-01T13:23:54;8.05;;;5.45;;
58864;SDS011;45702;52.982;6.658;2023-04-01T13:28:56;8.75;;;4.95;;
58864;SDS011;45702;52.982;6.658;2023-04-01T13:34:04;7.43;;;4.43;;
58864;SDS011;45702;52.982;6.658;2023-04-01T13:39:11;7.10;;;4.85;;
58864;SDS011;45702;52.982;6.658;2023-04-01T13:44:45;6.50;;;4.43;;
58864;SDS011;45702;52.982;6.658;2023-04-01T13:47:24;9.35;;;5.32;;
58864;SDS011;45702;52.982;6.658;2023-04-01T13:49:55;8.75;;;5.80;;
58864;SDS011;45702;52.982;6.658;2023-04-01T13:54:58;6.28;;;5.10;;
58864;SDS011;45702;52.982;6.658;2023-04-01T14:02:44;6.95;;;5.10;;
58864;SDS011;45702;52.982;6.658;2023-04-01T14:05:23;7.22;;;5.03;;
58864;SDS011;45702;52.982;6.658;2023-04-01T14:10:54;5.25;;;4.18;;
58864;SDS011;45702;52.982;6.658;2023-04-01T14:21:35;5.78;;;4.55;;
58864;SDS011;45702;52.982;6.658;2023-04-01T14:27:09;4.82;;;3.67;;
58864;SDS011;45702;52.982;6.658;2023-04-01T14:47:48;6.95;;;4.82;;
58864;SDS011;45702;52.982;6.658;2023-04-01T14:50:29;6.70;;;4.90;;
58864;SDS011;45702;52.982;6.658;2023-04-01T14:55:28;6.03;;;4.82;;
58864;SDS011;45702;52.982;6.658;2023-04-01T14:57:59;5.80;;;4.60;;
58864;SDS011;45702;52.982;6.658;2023-04-01T15:00:25;5.38;;;4.47;;
58864;SDS011;45702;52.982;6.658;2023-04-01T15:05:39;6.35;;;4.82;;
58864;SDS011;45702;52.982;6.658;2023-04-01T15:08:16;6.32;;;4.45;;
58864;SDS011;45702;52.982;6.658;2023-04-01T15:10:58;6.55;;;4.55;;
58864;SDS011;45702;52.982;6.658;2023-04-01T15:13:33;6.55;;;4.30;;
58864;SDS011;45702;52.982;6.658;2023-04-01T15:19:05;7.80;;;5.32;;
58864;SDS011;45702;52.982;6.658;2023-04-01T15:26:37;6.25;;;5.20;;
58864;SDS011;45702;52.982;6.658;2023-04-01T15:29:09;5.93;;;5.00;;
58864;SDS011;45702;52.982;6.658;2023-04-01T15:46:58;6.93;;;5.30;;
58864;SDS011;45702;52.982;6.658;2023-04-01T15:59:28;10.25;;;6.13;;
58864;SDS011;45702;52.982;6.658;2023-04-01T16:04:45;10.30;;;7.18;;
58864;SDS011;45702;52.982;6.658;2023-04-01T16:17:54;13.02;;;8.10;;
58864;SDS011;45702;52.982;6.658;2023-04-01T16:20:27;13.73;;;8.27;;
58864;SDS011;45702;52.982;6.658;2023-04-01T16:23:48;16.60;;;8.05;;
58864;SDS011;45702;52.982;6.658;2023-04-01T16:29:24;12.57;;;8.40;;
58864;SDS011;45702;52.982;6.658;2023-04-01T16:31:42;14.02;;;8.07;;
58864;SDS011;45702;52.982;6.658;2023-04-01T16:34:14;15.60;;;7.90;;
58864;SDS011;45702;52.982;6.658;2023-04-01T16:36:43;14.05;;;8.02;;
58864;SDS011;45702;52.982;6.658;2023-04-01T16:39:19;17.30;;;9.35;;
58864;SDS011;45702;52.982;6.658;2023-04-01T16:42:02;15.55;;;8.93;;
58864;SDS011;45702;52.982;6.658;2023-04-01T16:47:14;12.68;;;8.32;;
58864;SDS011;45702;52.982;6.658;2023-04-01T16:52:16;14.82;;;9.05;;
58864;SDS011;45702;52.982;6.658;2023-04-01T16:54:47;15.88;;;9.30;;
58864;SDS011;45702;52.982;6.658;2023-04-01T17:00:09;15.65;;;9.30;;
58864;SDS011;45702;52.982;6.658;2023-04-01T17:05:39;17.20;;;9.45;;
58864;SDS011;45702;52.982;6.658;2023-04-01T17:08:17;17.38;;;9.85;;
58864;SDS011;45702;52.982;6.658;2023-04-01T17:10:51;16.55;;;9.93;;
58864;SDS011;45702;52.982;6.658;2023-04-01T17:13:32;19.08;;;11.50;;
58864;SDS011;45702;52.982;6.658;2023-04-01T17:23:52;21.20;;;10.93;;
58864;SDS011;45702;52.982;6.658;2023-04-01T17:29:28;18.17;;;10.00;;
58864;SDS011;45702;52.982;6.658;2023-04-01T17:42:08;21.33;;;11.68;;
58864;SDS011;45702;52.982;6.658;2023-04-01T17:52:23;24.95;;;13.52;;
58864;SDS011;45702;52.982;6.658;2023-04-01T18:08:07;22.70;;;12.82;;
58864;SDS011;45702;52.982;6.658;2023-04-01T18:10:46;24.42;;;13.30;;
58864;SDS011;45702;52.982;6.658;2023-04-01T18:21:18;20.13;;;12.65;;
58864;SDS011;45702;52.982;6.658;2023-04-01T18:24:00;23.30;;;11.82;;
58864;SDS011;45702;52.982;6.658;2023-04-01T18:26:35;23.27;;;11.77;;
58864;SDS011;45702;52.982;6.658;2023-04-01T18:31:45;21.77;;;12.88;;
58864;SDS011;45702;52.982;6.658;2023-04-01T18:34:14;23.33;;;13.20;;
58864;SDS011;45702;52.982;6.658;2023-04-01T18:36:53;23.15;;;13.05;;
58864;SDS011;45702;52.982;6.658;2023-04-01T18:39:32;25.48;;;12.80;;
58864;SDS011;45702;52.982;6.658;2023-04-01T18:42:03;20.20;;;11.90;;
58864;SDS011;45702;52.982;6.658;2023-04-01T18:49:59;39.05;;;18.45;;
58864;SDS011;45702;52.982;6.658;2023-04-01T18:52:31;25.15;;;13.20;;
58864;SDS011;45702;52.982;6.658;2023-04-01T18:57:48;23.95;;;12.65;;
58864;SDS011;45702;52.982;6.658;2023-04-01T19:00:22;22.90;;;12.82;;
58864;SDS011;45702;52.982;6.658;2023-04-01T19:02:53;23.73;;;13.27;;
58864;SDS011;45702;52.982;6.658;2023-04-01T19:05:23;25.17;;;12.65;;
58864;SDS011;45702;52.982;6.658;2023-04-01T19:07:52;28.55;;;12.65;;
58864;SDS011;45702;52.982;6.658;2023-04-01T19:10:26;21.52;;;12.50;;
58864;SDS011;45702;52.982;6.658;2023-04-01T19:13:02;19.65;;;11.45;;
58864;SDS011;45702;52.982;6.658;2023-04-01T19:15:38;41.92;;;17.75;;
58864;SDS011;45702;52.982;6.658;2023-04-01T19:20:58;25.17;;;12.77;;
58864;SDS011;45702;52.982;6.658;2023-04-01T19:26:11;23.15;;;12.50;;
58864;SDS011;45702;52.982;6.658;2023-04-01T19:36:37;32.58;;;13.45;;
58864;SDS011;45702;52.982;6.658;2023-04-01T19:41:52;24.60;;;14.25;;
58864;SDS011;45702;52.982;6.658;2023-04-01T19:45:03;28.38;;;13.32;;
58864;SDS011;45702;52.982;6.658;2023-04-01T19:52:16;26.88;;;14.18;;
58864;SDS011;45702;52.982;6.658;2023-04-01T19:55:27;34.13;;;14.05;;
58864;SDS011;45702;52.982;6.658;2023-04-01T20:00:22;28.80;;;14.10;;
58864;SDS011;45702;52.982;6.658;2023-04-01T20:05:40;28.90;;;14.60;;
58864;SDS011;45702;52.982;6.658;2023-04-01T20:10:54;32.97;;;15.75;;
58864;SDS011;45702;52.982;6.658;2023-04-01T20:13:28;30.88;;;14.98;;
58864;SDS011;45702;52.982;6.658;2023-04-01T20:16:15;33.22;;;15.88;;
58864;SDS011;45702;52.982;6.658;2023-04-01T20:18:58;28.05;;;14.75;;
58864;SDS011;45702;52.982;6.658;2023-04-01T20:26:21;27.48;;;15.27;;
58864;SDS011;45702;52.982;6.658;2023-04-01T20:29:34;42.28;;;17.83;;
58864;SDS011;45702;52.982;6.658;2023-04-01T20:31:35;39.00;;;16.58;;
58864;SDS011;45702;52.982;6.658;2023-04-01T20:47:16;30.15;;;13.85;;
58864;SDS011;45702;52.982;6.658;2023-04-01T20:57:19;28.67;;;14.25;;
58864;SDS011;45702;52.982;6.658;2023-04-01T21:08:12;28.88;;;13.73;;
58864;SDS011;45702;52.982;6.658;2023-04-01T21:36:54;38.38;;;17.95;;
58864;SDS011;45702;52.982;6.658;2023-04-01T21:55:32;21.13;;;11.18;;
58864;SDS011;45702;52.982;6.658;2023-04-01T22:00:53;22.42;;;11.15;;
58864;SDS011;45702;52.982;6.658;2023-04-01T22:03:35;21.83;;;11.05;;
58864;SDS011;45702;52.982;6.658;2023-04-01T22:19:24;26.02;;;11.15;;
58864;SDS011;45702;52.982;6.658;2023-04-01T22:21:56;23.08;;;11.15;;
58864;SDS011;45702;52.982;6.658;2023-04-01T22:24:44;25.58;;;11.43;;
58864;SDS011;45702;52.982;6.658;2023-04-01T22:27:15;21.83;;;11.05;;
58864;SDS011;45702;52.982;6.658;2023-04-01T22:29:51;27.23;;;11.55;;
58864;SDS011;45702;52.982;6.658;2023-04-01T22:43:19;22.10;;;10.57;;
58864;SDS011;45702;52.982;6.658;2023-04-01T22:50:37;20.83;;;10.20;;
58864;SDS011;45702;52.982;6.658;2023-04-01T22:53:52;19.23;;;10.15;;
58864;SDS011;45702;52.982;6.658;2023-04-01T22:55:52;19.27;;;10.15;;
58864;SDS011;45702;52.982;6.658;2023-04-01T22:58:38;17.10;;;9.38;;
58864;SDS011;45702;52.982;6.658;2023-04-01T23:01:07;19.75;;;10.05;;
58864;SDS011;45702;52.982;6.658;2023-04-01T23:03:37;23.17;;;10.02;;
58864;SDS011;45702;52.982;6.658;2023-04-01T23:06:05;22.73;;;10.38;;
58864;SDS011;45702;52.982;6.658;2023-04-01T23:11:02;22.23;;;10.80;;
58864;SDS011;45702;52.982;6.658;2023-04-01T23:13:34;22.35;;;10.45;;
58864;SDS011;45702;52.982;6.658;2023-04-01T23:16:03;20.95;;;10.55;;
58864;SDS011;45702;52.982;6.658;2023-04-01T23:26:34;22.23;;;10.30;;
58864;SDS011;45702;52.982;6.658;2023-04-01T23:29:02;17.73;;;9.60;;
58864;SDS011;45702;52.982;6.658;2023-04-01T23:34:04;20.48;;;9.38;;
58864;SDS011;45702;52.982;6.658;2023-04-01T23:36:31;18.77;;;9.68;;
58864;SDS011;45702;52.982;6.658;2023-04-01T23:39:03;19.63;;;10.15;;
58864;SDS011;45702;52.982;6.658;2023-04-01T23:41:30;20.08;;;10.00;;
58864;SDS011;45702;52.982;6.658;2023-04-01T23:44:05;17.17;;;10.02;;
58864;SDS011;45702;52.982;6.658;2023-04-01T23:46:32;17.00;;;9.70;;
58864;SDS011;45702;52.982;6.658;2023-04-01T23:48:59;18.10;;;9.43;;
58864;SDS011;45702;52.982;6.658;2023-04-01T23:51:27;22.98;;;10.05;;
58864;SDS011;45702;52.982;6.658;2023-04-01T23:54:38;17.52;;;9.68;;
58864;SDS011;45702;52.982;6.658;2023-04-01T23:56:43;20.42;;;9.93;;
58864;SDS011;45702;52.982;6.658;2023-04-01T23:59:16;19.98;;;10.48;;
